sensor_id;sensor_type;location;lat;lon;timestamp;P1;durP1;ratioP1;P2;durP2;ratioP2
64550;SDS011;50945;44.472;-123.352;2023-06-22T00:02:18;1.00;;;0.50;;
64550;SDS011;50945;44.472;-123.352;2023-06-22T00:04:44;1.70;;;0.70;;
64550;SDS011;50945;44.472;-123.352;2023-06-22T00:07:10;0.47;;;0.40;;
64550;SDS011;50945;44.472;-123.352;2023-06-22T00:09:37;0.40;;;0.40;;
64550;SDS011;50945;44.472;-123.352;2023-06-22T00:12:03;2.97;;;0.80;;
64550;SDS011;50945;44.472;-123.352;2023-06-22T00:14:29;1.08;;;0.85;;
64550;SDS011;50945;44.472;-123.352;2023-06-22T00:16:55;1.50;;;0.60;;
64550;SDS011;50945;44.472;-123.352;2023-06-22T00:19:24;1.02;;;0.40;;
64550;SDS011;50945;44.472;-123.352;2023-06-22T00:21:50;1.55;;;0.60;;
64550;SDS011;50945;44.472;-123.352;2023-06-22T00:24:20;2.05;;;0.40;;
64550;SDS011;50945;44.472;-123.352;2023-06-22T00:26:47;1.95;;;0.73;;
64550;SDS011;50945;44.472;-123.352;2023-06-22T00:29:14;0.88;;;0.65;;
64550;SDS011;50945;44.472;-123.352;2023-06-22T00:31:40;1.85;;;0.60;;
64550;SDS011;50945;44.472;-123.352;2023-06-22T00:34:08;0.50;;;0.50;;
64550;SDS011;50945;44.472;-123.352;2023-06-22T00:36:34;0.50;;;0.50;;
64550;SDS011;50945;44.472;-123.352;2023-06-22T00:39:01;1.60;;;0.40;;
64550;SDS011;50945;44.472;-123.352;2023-06-22T00:41:28;2.65;;;0.55;;
64550;SDS011;50945;44.472;-123.352;2023-06-22T00:43:54;0.30;;;0.30;;
64550;SDS011;50945;44.472;-123.352;2023-06-22T00:46:21;0.98;;;0.73;;
64550;SDS011;50945;44.472;-123.352;2023-06-22T00:48:48;0.93;;;0.40;;
64550;SDS011;50945;44.472;-123.352;2023-06-22T00:51:15;1.00;;;0.50;;
64550;SDS011;50945;44.472;-123.352;2023-06-22T00:53:42;1.42;;;0.50;;
64550;SDS011;50945;44.472;-123.352;2023-06-22T00:56:08;1.13;;;0.60;;
64550;SDS011;50945;44.472;-123.352;2023-06-22T00:58:37;1.05;;;0.52;;
64550;SDS011;50945;44.472;-123.352;2023-06-22T01:01:06;0.28;;;0.28;;
64550;SDS011;50945;44.472;-123.352;2023-06-22T01:03:33;0.77;;;0.60;;
64550;SDS011;50945;44.472;-123.352;2023-06-22T01:06:06;0.55;;;0.40;;
64550;SDS011;50945;44.472;-123.352;2023-06-22T01:08:51;0.30;;;0.30;;
64550;SDS011;50945;44.472;-123.352;2023-06-22T01:11:31;0.75;;;0.75;;
64550;SDS011;50945;44.472;-123.352;2023-06-22T01:14:06;1.48;;;0.40;;
64550;SDS011;50945;44.472;-123.352;2023-06-22T01:16:40;2.15;;;0.70;;
64550;SDS011;50945;44.472;-123.352;2023-06-22T01:21:51;0.95;;;0.50;;
64550;SDS011;50945;44.472;-123.352;2023-06-22T01:24:32;0.57;;;0.50;;
64550;SDS011;50945;44.472;-123.352;2023-06-22T01:30:11;1.95;;;0.50;;
64550;SDS011;50945;44.472;-123.352;2023-06-22T01:32:41;3.22;;;0.85;;
64550;SDS011;50945;44.472;-123.352;2023-06-22T01:35:08;1.23;;;0.82;;
64550;SDS011;50945;44.472;-123.352;2023-06-22T01:37:35;1.15;;;0.82;;
64550;SDS011;50945;44.472;-123.352;2023-06-22T01:40:04;1.75;;;0.95;;
64550;SDS011;50945;44.472;-123.352;2023-06-22T01:42:32;1.38;;;0.47;;
64550;SDS011;50945;44.472;-123.352;2023-06-22T01:44:59;0.63;;;0.50;;
64550;SDS011;50945;44.472;-123.352;2023-06-22T01:47:27;0.80;;;0.60;;
64550;SDS011;50945;44.472;-123.352;2023-06-22T01:49:54;2.17;;;0.98;;
64550;SDS011;50945;44.472;-123.352;2023-06-22T01:52:21;1.27;;;0.90;;
64550;SDS011;50945;44.472;-123.352;2023-06-22T01:54:47;1.42;;;0.95;;
64550;SDS011;50945;44.472;-123.352;2023-06-22T02:02:09;0.90;;;0.90;;
64550;SDS011;50945;44.472;-123.352;2023-06-22T02:04:43;1.02;;;1.00;;
64550;SDS011;50945;44.472;-123.352;2023-06-22T02:07:14;3.40;;;1.30;;
64550;SDS011;50945;44.472;-123.352;2023-06-22T02:09:43;0.90;;;0.90;;
64550;SDS011;50945;44.472;-123.352;2023-06-22T02:12:11;0.93;;;0.93;;
64550;SDS011;50945;44.472;-123.352;2023-06-22T02:14:39;0.95;;;0.95;;
64550;SDS011;50945;44.472;-123.352;2023-06-22T02:17:07;1.70;;;1.13;;
64550;SDS011;50945;44.472;-123.352;2023-06-22T02:19:38;1.48;;;1.38;;
64550;SDS011;50945;44.472;-123.352;2023-06-22T02:22:06;1.40;;;1.30;;
64550;SDS011;50945;44.472;-123.352;2023-06-22T02:26:59;1.50;;;1.40;;
64550;SDS011;50945;44.472;-123.352;2023-06-22T02:29:26;3.17;;;1.30;;
64550;SDS011;50945;44.472;-123.352;2023-06-22T02:31:53;1.25;;;1.25;;
64550;SDS011;50945;44.472;-123.352;2023-06-22T02:34:21;1.50;;;1.40;;
64550;SDS011;50945;44.472;-123.352;2023-06-22T02:36:48;1.40;;;1.30;;
64550;SDS011;50945;44.472;-123.352;2023-06-22T02:39:22;1.75;;;1.38;;
64550;SDS011;50945;44.472;-123.352;2023-06-22T02:41:50;1.77;;;1.67;;
64550;SDS011;50945;44.472;-123.352;2023-06-22T02:44:17;1.98;;;1.27;;
64550;SDS011;50945;44.472;-123.352;2023-06-22T02:46:43;1.45;;;1.30;;
64550;SDS011;50945;44.472;-123.352;2023-06-22T02:49:10;2.10;;;1.80;;
64550;SDS011;50945;44.472;-123.352;2023-06-22T02:54:05;1.55;;;1.40;;
64550;SDS011;50945;44.472;-123.352;2023-06-22T02:56:31;2.55;;;1.45;;
64550;SDS011;50945;44.472;-123.352;2023-06-22T03:01:26;1.40;;;1.30;;
64550;SDS011;50945;44.472;-123.352;2023-06-22T03:03:56;1.63;;;1.35;;
64550;SDS011;50945;44.472;-123.352;2023-06-22T03:06:22;4.55;;;1.73;;
64550;SDS011;50945;44.472;-123.352;2023-06-22T03:08:57;3.70;;;1.50;;
64550;SDS011;50945;44.472;-123.352;2023-06-22T03:11:30;2.40;;;1.60;;
64550;SDS011;50945;44.472;-123.352;2023-06-22T03:13:57;1.88;;;1.25;;
64550;SDS011;50945;44.472;-123.352;2023-06-22T03:16:23;1.40;;;1.30;;
64550;SDS011;50945;44.472;-123.352;2023-06-22T03:21:15;2.10;;;1.50;;
64550;SDS011;50945;44.472;-123.352;2023-06-22T03:23:42;1.40;;;1.30;;
64550;SDS011;50945;44.472;-123.352;2023-06-22T03:26:09;1.33;;;1.23;;
64550;SDS011;50945;44.472;-123.352;2023-06-22T03:28:36;2.67;;;1.85;;
64550;SDS011;50945;44.472;-123.352;2023-06-22T03:31:03;2.97;;;1.50;;
64550;SDS011;50945;44.472;-123.352;2023-06-22T03:33:31;1.65;;;1.55;;
64550;SDS011;50945;44.472;-123.352;2023-06-22T03:38:23;2.67;;;1.50;;
64550;SDS011;50945;44.472;-123.352;2023-06-22T03:40:49;1.73;;;1.40;;
64550;SDS011;50945;44.472;-123.352;2023-06-22T03:43:16;1.38;;;1.20;;
64550;SDS011;50945;44.472;-123.352;2023-06-22T03:45:42;2.00;;;1.05;;
64550;SDS011;50945;44.472;-123.352;2023-06-22T03:48:11;1.60;;;1.50;;
64550;SDS011;50945;44.472;-123.352;2023-06-22T03:50:37;1.40;;;1.30;;
64550;SDS011;50945;44.472;-123.352;2023-06-22T03:53:03;1.83;;;1.30;;
64550;SDS011;50945;44.472;-123.352;2023-06-22T03:55:30;1.70;;;1.58;;
64550;SDS011;50945;44.472;-123.352;2023-06-22T03:57:56;2.60;;;1.63;;
64550;SDS011;50945;44.472;-123.352;2023-06-22T04:02:48;3.53;;;1.27;;
64550;SDS011;50945;44.472;-123.352;2023-06-22T04:05:15;1.65;;;1.40;;
64550;SDS011;50945;44.472;-123.352;2023-06-22T04:07:43;2.40;;;1.55;;
64550;SDS011;50945;44.472;-123.352;2023-06-22T04:10:09;2.08;;;1.45;;
64550;SDS011;50945;44.472;-123.352;2023-06-22T04:12:35;1.70;;;1.60;;
64550;SDS011;50945;44.472;-123.352;2023-06-22T04:15:02;5.53;;;1.77;;
64550;SDS011;50945;44.472;-123.352;2023-06-22T04:17:28;1.80;;;1.70;;
64550;SDS011;50945;44.472;-123.352;2023-06-22T04:19:54;1.63;;;1.52;;
64550;SDS011;50945;44.472;-123.352;2023-06-22T04:22:20;1.52;;;1.40;;
64550;SDS011;50945;44.472;-123.352;2023-06-22T04:24:46;1.80;;;1.70;;
64550;SDS011;50945;44.472;-123.352;2023-06-22T04:27:13;2.40;;;1.58;;
64550;SDS011;50945;44.472;-123.352;2023-06-22T04:29:39;1.85;;;1.75;;
64550;SDS011;50945;44.472;-123.352;2023-06-22T04:32:16;1.85;;;1.75;;
64550;SDS011;50945;44.472;-123.352;2023-06-22T04:34:43;1.70;;;1.60;;
64550;SDS011;50945;44.472;-123.352;2023-06-22T04:39:41;2.47;;;1.63;;
64550;SDS011;50945;44.472;-123.352;2023-06-22T04:42:08;1.67;;;1.58;;
64550;SDS011;50945;44.472;-123.352;2023-06-22T04:44:34;2.42;;;1.60;;
64550;SDS011;50945;44.472;-123.352;2023-06-22T04:47:01;1.40;;;1.30;;
64550;SDS011;50945;44.472;-123.352;2023-06-22T04:52:06;1.98;;;1.58;;
64550;SDS011;50945;44.472;-123.352;2023-06-22T04:54:34;4.35;;;1.95;;
64550;SDS011;50945;44.472;-123.352;2023-06-22T04:57:02;1.65;;;1.55;;
64550;SDS011;50945;44.472;-123.352;2023-06-22T04:59:30;1.92;;;1.52;;
64550;SDS011;50945;44.472;-123.352;2023-06-22T05:01:57;1.85;;;1.38;;
64550;SDS011;50945;44.472;-123.352;2023-06-22T05:04:27;1.63;;;1.52;;
64550;SDS011;50945;44.472;-123.352;2023-06-22T05:06:58;1.73;;;1.63;;
64550;SDS011;50945;44.472;-123.352;2023-06-22T05:09:29;3.20;;;1.73;;
64550;SDS011;50945;44.472;-123.352;2023-06-22T05:11:55;1.27;;;1.17;;
64550;SDS011;50945;44.472;-123.352;2023-06-22T05:14:22;3.47;;;1.45;;
64550;SDS011;50945;44.472;-123.352;2023-06-22T05:16:48;1.58;;;1.45;;
64550;SDS011;50945;44.472;-123.352;2023-06-22T05:19:17;5.05;;;1.88;;
64550;SDS011;50945;44.472;-123.352;2023-06-22T05:21:43;2.80;;;1.90;;
64550;SDS011;50945;44.472;-123.352;2023-06-22T05:24:09;2.15;;;1.52;;
64550;SDS011;50945;44.472;-123.352;2023-06-22T05:26:36;3.53;;;1.75;;
64550;SDS011;50945;44.472;-123.352;2023-06-22T05:29:02;1.67;;;1.58;;
64550;SDS011;50945;44.472;-123.352;2023-06-22T05:33:55;1.98;;;1.52;;
64550;SDS011;50945;44.472;-123.352;2023-06-22T05:36:22;2.20;;;1.55;;
64550;SDS011;50945;44.472;-123.352;2023-06-22T05:38:51;2.05;;;1.63;;
64550;SDS011;50945;44.472;-123.352;2023-06-22T05:41:18;2.85;;;2.20;;
64550;SDS011;50945;44.472;-123.352;2023-06-22T05:43:44;1.83;;;1.70;;
64550;SDS011;50945;44.472;-123.352;2023-06-22T05:46:11;4.75;;;1.83;;
64550;SDS011;50945;44.472;-123.352;2023-06-22T05:48:37;2.97;;;1.73;;
64550;SDS011;50945;44.472;-123.352;2023-06-22T05:51:03;4.63;;;2.15;;
64550;SDS011;50945;44.472;-123.352;2023-06-22T05:53:29;4.15;;;2.20;;
64550;SDS011;50945;44.472;-123.352;2023-06-22T05:55:55;3.85;;;1.77;;
64550;SDS011;50945;44.472;-123.352;2023-06-22T05:58:21;2.10;;;1.98;;
64550;SDS011;50945;44.472;-123.352;2023-06-22T06:00:48;2.50;;;2.00;;
64550;SDS011;50945;44.472;-123.352;2023-06-22T06:03:14;4.05;;;1.83;;
64550;SDS011;50945;44.472;-123.352;2023-06-22T06:05:42;3.30;;;1.58;;
64550;SDS011;50945;44.472;-123.352;2023-06-22T06:08:09;2.85;;;1.98;;
64550;SDS011;50945;44.472;-123.352;2023-06-22T06:10:36;2.60;;;1.42;;
64550;SDS011;50945;44.472;-123.352;2023-06-22T06:15:30;2.92;;;2.10;;
64550;SDS011;50945;44.472;-123.352;2023-06-22T06:17:57;4.72;;;2.08;;
64550;SDS011;50945;44.472;-123.352;2023-06-22T06:20:24;2.47;;;1.77;;
64550;SDS011;50945;44.472;-123.352;2023-06-22T06:22:51;1.67;;;1.55;;
64550;SDS011;50945;44.472;-123.352;2023-06-22T06:25:17;2.75;;;1.60;;
64550;SDS011;50945;44.472;-123.352;2023-06-22T06:27:46;5.57;;;1.70;;
64550;SDS011;50945;44.472;-123.352;2023-06-22T06:30:13;4.68;;;1.90;;
64550;SDS011;50945;44.472;-123.352;2023-06-22T06:32:40;3.17;;;1.70;;
64550;SDS011;50945;44.472;-123.352;2023-06-22T06:35:07;1.77;;;1.67;;
64550;SDS011;50945;44.472;-123.352;2023-06-22T06:37:41;3.28;;;1.80;;
64550;SDS011;50945;44.472;-123.352;2023-06-22T06:40:09;2.65;;;1.60;;
64550;SDS011;50945;44.472;-123.352;2023-06-22T06:42:37;2.65;;;1.70;;
64550;SDS011;50945;44.472;-123.352;2023-06-22T06:45:07;4.15;;;1.85;;
64550;SDS011;50945;44.472;-123.352;2023-06-22T06:47:34;3.38;;;1.60;;
64550;SDS011;50945;44.472;-123.352;2023-06-22T06:50:00;1.85;;;1.58;;
64550;SDS011;50945;44.472;-123.352;2023-06-22T06:52:26;3.63;;;2.22;;
64550;SDS011;50945;44.472;-123.352;2023-06-22T06:54:52;2.80;;;1.90;;
64550;SDS011;50945;44.472;-123.352;2023-06-22T06:57:19;3.35;;;2.20;;
64550;SDS011;50945;44.472;-123.352;2023-06-22T06:59:45;2.30;;;1.92;;
64550;SDS011;50945;44.472;-123.352;2023-06-22T07:02:11;2.10;;;1.95;;
64550;SDS011;50945;44.472;-123.352;2023-06-22T07:04:38;2.58;;;1.75;;
64550;SDS011;50945;44.472;-123.352;2023-06-22T07:07:04;2.03;;;1.60;;
64550;SDS011;50945;44.472;-123.352;2023-06-22T07:09:31;4.15;;;2.05;;
64550;SDS011;50945;44.472;-123.352;2023-06-22T07:11:57;2.53;;;1.63;;
64550;SDS011;50945;44.472;-123.352;2023-06-22T07:14:23;2.53;;;1.67;;
64550;SDS011;50945;44.472;-123.352;2023-06-22T07:16:49;2.40;;;1.90;;
64550;SDS011;50945;44.472;-123.352;2023-06-22T07:19:15;2.15;;;1.95;;
64550;SDS011;50945;44.472;-123.352;2023-06-22T07:21:41;3.15;;;2.00;;
64550;SDS011;50945;44.472;-123.352;2023-06-22T07:24:08;2.15;;;1.90;;
64550;SDS011;50945;44.472;-123.352;2023-06-22T07:26:34;3.17;;;2.05;;
64550;SDS011;50945;44.472;-123.352;2023-06-22T07:29:00;4.25;;;2.30;;
64550;SDS011;50945;44.472;-123.352;2023-06-22T07:31:26;5.15;;;2.10;;
64550;SDS011;50945;44.472;-123.352;2023-06-22T07:33:52;2.30;;;2.10;;
64550;SDS011;50945;44.472;-123.352;2023-06-22T07:36:19;3.28;;;1.90;;
64550;SDS011;50945;44.472;-123.352;2023-06-22T07:38:45;2.65;;;1.98;;
64550;SDS011;50945;44.472;-123.352;2023-06-22T07:43:37;4.63;;;2.13;;
64550;SDS011;50945;44.472;-123.352;2023-06-22T07:46:03;4.20;;;2.17;;
64550;SDS011;50945;44.472;-123.352;2023-06-22T07:48:30;2.08;;;1.98;;
64550;SDS011;50945;44.472;-123.352;2023-06-22T07:50:56;2.30;;;2.10;;
64550;SDS011;50945;44.472;-123.352;2023-06-22T07:53:22;3.90;;;1.92;;
64550;SDS011;50945;44.472;-123.352;2023-06-22T07:58:15;4.70;;;2.13;;
64550;SDS011;50945;44.472;-123.352;2023-06-22T08:00:44;2.58;;;2.22;;
64550;SDS011;50945;44.472;-123.352;2023-06-22T08:03:10;3.45;;;2.00;;
64550;SDS011;50945;44.472;-123.352;2023-06-22T08:05:36;3.13;;;2.25;;
64550;SDS011;50945;44.472;-123.352;2023-06-22T08:08:02;6.03;;;2.10;;
64550;SDS011;50945;44.472;-123.352;2023-06-22T08:10:28;4.80;;;3.00;;
64550;SDS011;50945;44.472;-123.352;2023-06-22T08:12:54;2.33;;;1.88;;
64550;SDS011;50945;44.472;-123.352;2023-06-22T08:15:21;2.40;;;1.98;;
64550;SDS011;50945;44.472;-123.352;2023-06-22T08:17:47;3.53;;;2.10;;
64550;SDS011;50945;44.472;-123.352;2023-06-22T08:20:13;3.65;;;2.10;;
64550;SDS011;50945;44.472;-123.352;2023-06-22T08:22:40;1.98;;;1.88;;
64550;SDS011;50945;44.472;-123.352;2023-06-22T08:25:07;2.53;;;2.13;;
64550;SDS011;50945;44.472;-123.352;2023-06-22T08:27:34;3.88;;;2.22;;
64550;SDS011;50945;44.472;-123.352;2023-06-22T08:32:29;2.20;;;1.70;;
64550;SDS011;50945;44.472;-123.352;2023-06-22T08:34:58;2.55;;;2.13;;
64550;SDS011;50945;44.472;-123.352;2023-06-22T08:37:24;3.97;;;2.00;;
64550;SDS011;50945;44.472;-123.352;2023-06-22T08:39:59;3.40;;;2.25;;
64550;SDS011;50945;44.472;-123.352;2023-06-22T08:42:33;6.00;;;2.25;;
64550;SDS011;50945;44.472;-123.352;2023-06-22T08:44:59;3.58;;;2.10;;
64550;SDS011;50945;44.472;-123.352;2023-06-22T08:47:29;3.05;;;2.10;;
64550;SDS011;50945;44.472;-123.352;2023-06-22T08:49:55;4.13;;;2.40;;
64550;SDS011;50945;44.472;-123.352;2023-06-22T08:52:21;3.78;;;2.50;;
64550;SDS011;50945;44.472;-123.352;2023-06-22T08:54:48;3.50;;;2.30;;
64550;SDS011;50945;44.472;-123.352;2023-06-22T08:57:15;2.92;;;2.10;;
64550;SDS011;50945;44.472;-123.352;2023-06-22T08:59:43;2.00;;;1.85;;
64550;SDS011;50945;44.472;-123.352;2023-06-22T09:02:09;2.80;;;2.38;;
64550;SDS011;50945;44.472;-123.352;2023-06-22T09:04:35;2.40;;;2.20;;
64550;SDS011;50945;44.472;-123.352;2023-06-22T09:07:02;2.63;;;1.83;;
64550;SDS011;50945;44.472;-123.352;2023-06-22T09:09:28;4.07;;;2.10;;
64550;SDS011;50945;44.472;-123.352;2023-06-22T09:11:55;3.75;;;2.17;;
64550;SDS011;50945;44.472;-123.352;2023-06-22T09:14:21;3.72;;;2.15;;
64550;SDS011;50945;44.472;-123.352;2023-06-22T09:16:47;2.60;;;2.33;;
64550;SDS011;50945;44.472;-123.352;2023-06-22T09:19:13;5.43;;;2.35;;
64550;SDS011;50945;44.472;-123.352;2023-06-22T09:21:39;5.60;;;2.30;;
64550;SDS011;50945;44.472;-123.352;2023-06-22T09:24:05;5.22;;;2.10;;
64550;SDS011;50945;44.472;-123.352;2023-06-22T09:26:32;5.40;;;2.35;;
64550;SDS011;50945;44.472;-123.352;2023-06-22T09:28:58;3.55;;;2.10;;
64550;SDS011;50945;44.472;-123.352;2023-06-22T09:31:24;6.72;;;2.50;;
64550;SDS011;50945;44.472;-123.352;2023-06-22T09:33:54;2.40;;;2.05;;
64550;SDS011;50945;44.472;-123.352;2023-06-22T09:36:21;4.22;;;1.92;;
64550;SDS011;50945;44.472;-123.352;2023-06-22T09:38:47;2.70;;;2.28;;
64550;SDS011;50945;44.472;-123.352;2023-06-22T09:41:14;2.20;;;2.00;;
64550;SDS011;50945;44.472;-123.352;2023-06-22T09:43:41;2.30;;;1.92;;
64550;SDS011;50945;44.472;-123.352;2023-06-22T09:46:07;4.45;;;2.20;;
64550;SDS011;50945;44.472;-123.352;2023-06-22T09:48:34;2.53;;;2.30;;
64550;SDS011;50945;44.472;-123.352;2023-06-22T09:51:00;4.60;;;2.53;;
64550;SDS011;50945;44.472;-123.352;2023-06-22T09:53:26;3.78;;;2.53;;
64550;SDS011;50945;44.472;-123.352;2023-06-22T09:55:53;3.47;;;2.35;;
64550;SDS011;50945;44.472;-123.352;2023-06-22T09:58:20;2.15;;;2.00;;
64550;SDS011;50945;44.472;-123.352;2023-06-22T10:00:46;3.90;;;2.22;;
64550;SDS011;50945;44.472;-123.352;2023-06-22T10:03:12;4.53;;;2.10;;
64550;SDS011;50945;44.472;-123.352;2023-06-22T10:05:38;3.58;;;2.30;;
64550;SDS011;50945;44.472;-123.352;2023-06-22T10:08:04;2.40;;;2.20;;
64550;SDS011;50945;44.472;-123.352;2023-06-22T10:10:32;2.72;;;2.22;;
64550;SDS011;50945;44.472;-123.352;2023-06-22T10:13:06;2.40;;;2.20;;
64550;SDS011;50945;44.472;-123.352;2023-06-22T10:15:37;3.60;;;2.28;;
64550;SDS011;50945;44.472;-123.352;2023-06-22T10:18:04;3.08;;;2.10;;
64550;SDS011;50945;44.472;-123.352;2023-06-22T10:20:30;2.53;;;2.33;;
64550;SDS011;50945;44.472;-123.352;2023-06-22T10:22:56;4.00;;;2.50;;
64550;SDS011;50945;44.472;-123.352;2023-06-22T10:25:22;4.13;;;2.28;;
64550;SDS011;50945;44.472;-123.352;2023-06-22T10:27:49;2.63;;;2.30;;
64550;SDS011;50945;44.472;-123.352;2023-06-22T10:30:16;2.17;;;1.98;;
64550;SDS011;50945;44.472;-123.352;2023-06-22T10:32:42;4.18;;;2.35;;
64550;SDS011;50945;44.472;-123.352;2023-06-22T10:35:09;2.83;;;2.33;;
64550;SDS011;50945;44.472;-123.352;2023-06-22T10:37:39;2.63;;;2.17;;
64550;SDS011;50945;44.472;-123.352;2023-06-22T10:40:05;3.03;;;2.00;;
64550;SDS011;50945;44.472;-123.352;2023-06-22T10:42:33;4.35;;;2.60;;
64550;SDS011;50945;44.472;-123.352;2023-06-22T10:44:59;2.92;;;2.30;;
64550;SDS011;50945;44.472;-123.352;2023-06-22T10:47:25;3.03;;;2.58;;
64550;SDS011;50945;44.472;-123.352;2023-06-22T10:49:51;3.05;;;2.40;;
64550;SDS011;50945;44.472;-123.352;2023-06-22T10:52:17;3.35;;;2.03;;
64550;SDS011;50945;44.472;-123.352;2023-06-22T10:54:43;3.13;;;2.50;;
64550;SDS011;50945;44.472;-123.352;2023-06-22T10:57:09;3.15;;;2.28;;
64550;SDS011;50945;44.472;-123.352;2023-06-22T10:59:35;3.20;;;2.35;;
64550;SDS011;50945;44.472;-123.352;2023-06-22T11:02:02;2.40;;;2.20;;
64550;SDS011;50945;44.472;-123.352;2023-06-22T11:04:28;3.38;;;2.40;;
64550;SDS011;50945;44.472;-123.352;2023-06-22T11:06:54;6.55;;;2.60;;
64550;SDS011;50945;44.472;-123.352;2023-06-22T11:09:21;4.22;;;2.25;;
64550;SDS011;50945;44.472;-123.352;2023-06-22T11:11:50;2.88;;;2.47;;
64550;SDS011;50945;44.472;-123.352;2023-06-22T11:14:20;3.20;;;2.45;;
64550;SDS011;50945;44.472;-123.352;2023-06-22T11:16:47;2.85;;;2.40;;
64550;SDS011;50945;44.472;-123.352;2023-06-22T11:19:13;2.20;;;2.00;;
64550;SDS011;50945;44.472;-123.352;2023-06-22T11:21:40;2.90;;;2.60;;
64550;SDS011;50945;44.472;-123.352;2023-06-22T11:26:32;4.95;;;2.22;;
64550;SDS011;50945;44.472;-123.352;2023-06-22T11:28:58;4.25;;;2.38;;
64550;SDS011;50945;44.472;-123.352;2023-06-22T11:31:25;3.72;;;2.70;;
64550;SDS011;50945;44.472;-123.352;2023-06-22T11:33:51;3.67;;;2.17;;
64550;SDS011;50945;44.472;-123.352;2023-06-22T11:36:18;3.38;;;2.47;;
64550;SDS011;50945;44.472;-123.352;2023-06-22T11:38:45;2.97;;;2.28;;
64550;SDS011;50945;44.472;-123.352;2023-06-22T11:41:11;3.65;;;2.22;;
64550;SDS011;50945;44.472;-123.352;2023-06-22T11:43:37;4.95;;;2.67;;
64550;SDS011;50945;44.472;-123.352;2023-06-22T11:46:03;3.10;;;2.40;;
64550;SDS011;50945;44.472;-123.352;2023-06-22T11:50:56;3.15;;;2.05;;
64550;SDS011;50945;44.472;-123.352;2023-06-22T11:53:24;2.38;;;2.17;;
64550;SDS011;50945;44.472;-123.352;2023-06-22T11:55:51;5.82;;;2.50;;
64550;SDS011;50945;44.472;-123.352;2023-06-22T11:58:19;5.43;;;2.50;;
64550;SDS011;50945;44.472;-123.352;2023-06-22T12:00:45;2.72;;;2.47;;
64550;SDS011;50945;44.472;-123.352;2023-06-22T12:03:11;2.90;;;2.30;;
64550;SDS011;50945;44.472;-123.352;2023-06-22T12:05:38;3.08;;;2.38;;
64550;SDS011;50945;44.472;-123.352;2023-06-22T12:08:04;2.60;;;2.40;;
64550;SDS011;50945;44.472;-123.352;2023-06-22T12:10:30;2.70;;;2.50;;
64550;SDS011;50945;44.472;-123.352;2023-06-22T12:12:56;2.95;;;2.63;;
64550;SDS011;50945;44.472;-123.352;2023-06-22T12:15:25;3.55;;;2.30;;
64550;SDS011;50945;44.472;-123.352;2023-06-22T12:17:51;2.88;;;2.45;;
64550;SDS011;50945;44.472;-123.352;2023-06-22T12:22:44;2.97;;;2.30;;
64550;SDS011;50945;44.472;-123.352;2023-06-22T12:25:11;3.90;;;2.50;;
64550;SDS011;50945;44.472;-123.352;2023-06-22T12:27:37;2.33;;;2.08;;
64550;SDS011;50945;44.472;-123.352;2023-06-22T12:30:04;4.28;;;2.78;;
64550;SDS011;50945;44.472;-123.352;2023-06-22T12:32:30;2.90;;;2.55;;
64550;SDS011;50945;44.472;-123.352;2023-06-22T12:34:57;2.53;;;2.20;;
64550;SDS011;50945;44.472;-123.352;2023-06-22T12:37:23;2.70;;;2.13;;
64550;SDS011;50945;44.472;-123.352;2023-06-22T12:39:49;5.68;;;2.30;;
64550;SDS011;50945;44.472;-123.352;2023-06-22T12:42:16;3.25;;;2.72;;
64550;SDS011;50945;44.472;-123.352;2023-06-22T12:44:42;2.20;;;2.10;;
64550;SDS011;50945;44.472;-123.352;2023-06-22T12:47:08;3.03;;;2.30;;
64550;SDS011;50945;44.472;-123.352;2023-06-22T12:49:35;3.45;;;2.65;;
64550;SDS011;50945;44.472;-123.352;2023-06-22T12:52:02;4.22;;;2.40;;
64550;SDS011;50945;44.472;-123.352;2023-06-22T12:54:28;3.92;;;2.55;;
64550;SDS011;50945;44.472;-123.352;2023-06-22T12:56:55;2.55;;;2.30;;
64550;SDS011;50945;44.472;-123.352;2023-06-22T12:59:22;2.42;;;2.22;;
64550;SDS011;50945;44.472;-123.352;2023-06-22T13:01:48;2.63;;;2.20;;
64550;SDS011;50945;44.472;-123.352;2023-06-22T13:04:14;3.03;;;2.80;;
64550;SDS011;50945;44.472;-123.352;2023-06-22T13:06:40;2.50;;;2.30;;
64550;SDS011;50945;44.472;-123.352;2023-06-22T13:09:08;3.08;;;2.50;;
64550;SDS011;50945;44.472;-123.352;2023-06-22T13:11:35;6.90;;;2.80;;
64550;SDS011;50945;44.472;-123.352;2023-06-22T13:14:01;3.45;;;2.60;;
64550;SDS011;50945;44.472;-123.352;2023-06-22T13:16:28;2.85;;;2.40;;
64550;SDS011;50945;44.472;-123.352;2023-06-22T13:18:54;3.92;;;2.47;;
64550;SDS011;50945;44.472;-123.352;2023-06-22T13:21:20;3.88;;;2.80;;
64550;SDS011;50945;44.472;-123.352;2023-06-22T13:23:46;3.20;;;2.35;;
64550;SDS011;50945;44.472;-123.352;2023-06-22T13:26:12;2.85;;;2.63;;
64550;SDS011;50945;44.472;-123.352;2023-06-22T13:28:38;2.92;;;2.70;;
64550;SDS011;50945;44.472;-123.352;2023-06-22T13:31:04;3.13;;;2.75;;
64550;SDS011;50945;44.472;-123.352;2023-06-22T13:33:31;2.72;;;2.40;;
64550;SDS011;50945;44.472;-123.352;2023-06-22T13:35:57;3.03;;;2.38;;
64550;SDS011;50945;44.472;-123.352;2023-06-22T13:38:23;2.78;;;2.53;;
64550;SDS011;50945;44.472;-123.352;2023-06-22T13:40:49;3.50;;;2.58;;
64550;SDS011;50945;44.472;-123.352;2023-06-22T13:43:16;4.32;;;2.58;;
64550;SDS011;50945;44.472;-123.352;2023-06-22T13:45:42;2.80;;;2.45;;
64550;SDS011;50945;44.472;-123.352;2023-06-22T13:48:08;2.95;;;2.63;;
64550;SDS011;50945;44.472;-123.352;2023-06-22T13:50:35;4.07;;;2.50;;
64550;SDS011;50945;44.472;-123.352;2023-06-22T13:53:01;4.32;;;2.80;;
64550;SDS011;50945;44.472;-123.352;2023-06-22T13:55:27;2.20;;;2.08;;
64550;SDS011;50945;44.472;-123.352;2023-06-22T13:57:53;3.58;;;2.80;;
64550;SDS011;50945;44.472;-123.352;2023-06-22T14:00:19;3.28;;;2.45;;
64550;SDS011;50945;44.472;-123.352;2023-06-22T14:02:46;22.63;;;3.53;;
64550;SDS011;50945;44.472;-123.352;2023-06-22T14:05:12;8.30;;;2.80;;
64550;SDS011;50945;44.472;-123.352;2023-06-22T14:07:38;5.70;;;2.63;;
64550;SDS011;50945;44.472;-123.352;2023-06-22T14:10:04;4.80;;;2.40;;
64550;SDS011;50945;44.472;-123.352;2023-06-22T14:12:31;5.88;;;2.53;;
64550;SDS011;50945;44.472;-123.352;2023-06-22T14:14:57;2.80;;;2.45;;
64550;SDS011;50945;44.472;-123.352;2023-06-22T14:17:23;5.43;;;2.45;;
64550;SDS011;50945;44.472;-123.352;2023-06-22T14:19:51;3.92;;;2.65;;
64550;SDS011;50945;44.472;-123.352;2023-06-22T14:22:21;3.28;;;2.35;;
64550;SDS011;50945;44.472;-123.352;2023-06-22T14:24:48;3.45;;;2.53;;
64550;SDS011;50945;44.472;-123.352;2023-06-22T14:27:15;3.60;;;2.67;;
64550;SDS011;50945;44.472;-123.352;2023-06-22T14:29:41;4.13;;;2.70;;
64550;SDS011;50945;44.472;-123.352;2023-06-22T14:32:08;3.25;;;2.80;;
64550;SDS011;50945;44.472;-123.352;2023-06-22T14:34:34;4.45;;;3.03;;
64550;SDS011;50945;44.472;-123.352;2023-06-22T14:37:03;3.80;;;2.20;;
64550;SDS011;50945;44.472;-123.352;2023-06-22T14:39:31;3.35;;;2.63;;
64550;SDS011;50945;44.472;-123.352;2023-06-22T14:41:57;3.92;;;2.63;;
64550;SDS011;50945;44.472;-123.352;2023-06-22T14:44:26;3.97;;;2.85;;
64550;SDS011;50945;44.472;-123.352;2023-06-22T14:46:54;4.05;;;2.50;;
64550;SDS011;50945;44.472;-123.352;2023-06-22T14:49:21;2.95;;;2.65;;
64550;SDS011;50945;44.472;-123.352;2023-06-22T14:51:47;5.88;;;2.67;;
64550;SDS011;50945;44.472;-123.352;2023-06-22T14:54:13;3.88;;;2.70;;
64550;SDS011;50945;44.472;-123.352;2023-06-22T14:56:39;3.47;;;2.80;;
64550;SDS011;50945;44.472;-123.352;2023-06-22T14:59:06;3.28;;;2.92;;